Terminal Aerodrome Forecast
Issued by NWS

Home | Current Version | Previous Version | Text Only | Print | Product List | Glossary On
Versions: 1 2 3 4 5 6 7 8 9 10 11 12 13 14 15 16 17 18 19 20
000
FTPA31 PHFO 241139
TAFHMK
TAF
PHMK 241139Z 2412/2512 07011G18KT 6SM -RA BR FEW010 SCT015 OVC035
     FM241600 07015G25KT 4SM RA BR FEW010 BKN015 OVC025
     FM250600 09012G25KT P6SM -SHRA SCT015 BKN035=

USA.gov is the U.S. government's official web portal to all federal, state and local government web resources and services.